Aeroporto :
LOGIN :

Iscrizione | Disclaimer

   EN    FR    IT 

 










Sommario :    VFR   VFR Marginale   IFR   IFR Intensivo   IFR Molto Intensivo
Visibilità : 
Base nubi : 
>= 8 km
>= 3000ft
5 / 8 km
1000 / 3000 ft
1500m / 5 km
500 / 1000 ft
800 / 1500m
200 / 500 ft
< 800m
< 200 ft
Simboli :   Temporali  Nebbia  Neve Forte  Precipitazioni Forti  Vento > 20 kt
SIGMETs :   Varie  Temporali  Ghiacco  Turbolenza  Onda orograficha  Ceneri Vulcaniche







- Altitudine del aeroporto : 768 ft
- Codice IATA : MXP


LIMC - Milano Malpensa

ULTIMO METAR :
  • 261020Z 34006KT 270V040 CAVOK 12/M04 Q1022 NOSIG

METARs OBSOLETI :
  • 260950Z 33005KT 290V020 CAVOK 11/M01 Q1022 NOSIG
  • 260920Z 34007KT 290V030 CAVOK 10/00 Q1022 NOSIG
  • 260850Z 33006KT 290V010 CAVOK 09/01 Q1023 NOSIG
  • 260820Z 33003KT 280V040 9999 SCT027 08/01 Q1023 NOSIG
  • 260750Z VRB02KT 9999 SCT023 07/01 Q1023 NOSIG

TAF TAF LIMC
Valido dal 26 a 06 ore il 27 a 12 ore UTC


260500Z 2606/2712 12012KT CAVOK
BECMG 2610/2612 36005KT
Nessun NOTAM noto per questo aeroporto.
3 SIGMETs conosciuti per la FIR Milano (LIMM) :
 
Turbolenza severa
LIMM SIGMET 7 VALID 260900/261100 LIIP
LIMM MILANO FIR SEV TURB OBS WI N4632 E00927 - N4517 E00948 - N4517 E00815 - N4629 E00822 - N4632 E00927 FL380 STNR WKN=
Turbolenza severa
LIMM SIGMET 6 VALID 260900/261300 LIIP
LIMM MILANO FIR SEV TURB FCST WI N4425 E00912 - N4445 E01018 - N4340 E01214 - N4339 E01021 - N4425 E00912 BLW FL070 STNR WKN=
Turbolenza severa
LIMM SIGMET 5 VALID 260900/261300 LIIP
LIMM MILANO FIR SEV TURB FCST ENTIRE FIR FL150/370 STNR NC=



MetMap, La meteo Aeronautica in un colpo d'occhio ! - Copyright ORBIFLY Dicembre 2007 - Disclaimer

ORBIFLY MET'MAP TEAM :

Programmazione e sviluppo : Alexandra Zaïnal
Concezione e sviluppo : Baudouin d'Aumeries
Co-Programmazione e sviluppo : Marc-Olivier Méhu
Supporto tecnico e logistico : Manuel Goepfert
Aiuto per la traduzione : Arnaldo La Scala

Contatto : metmap@orbifly.com




FONTI E CREDITI :

   NOAA